Plattenville, LA (70393)

2:40 PM CDT on September 30, 2014 (GMT -0500)
plattenville | Change Station
CLOSE
Current Station
Personal Weather Station
Location: Napoleonville, LA
Elevation: 23 ft
Nearby Weather Stations

Elev 23 ft 29.96 °N, 91.02 °W | Updated 1 minute ago

Mostly Cloudy
Mostly Cloudy
86.2 °F
Feels Like 95 °F
N
0.0
Wind Variable Wind from SSE

Today
High -- | Low -- °F
--% Chance of Precip.
Yesterday
High -- | Low -- °F
Precip. -- in
6:56 AM 6:50 PM
Waxing Crescent, 39% visible
Pressure 29.85 in
Visibility 10.0 miles
Clouds Scattered Clouds 3500 ft
Scattered Clouds 4500 ft
Scattered Clouds 5500 ft
Heat Index 95 °F
Dew Point 75 °F
Humidity 69%
Rainfall 0.00 in
Snow Depth Not available.
UV 7 out of 12
Pollen 7.70 out of 12
Air Quality Not available.
Flu Activity Not available.
METAR KL38 301915Z AUTO 09004KT 10SM SCT035 SCT045 SCT055 31/23 A2985 RMK AO2 T03080227

More Conditions Fewer Conditions

Pressure 29.85 in
Visibility 10.0 miles
Clouds Scattered Clouds 3500 ft
Scattered Clouds 4500 ft
Scattered Clouds 5500 ft
Heat Index 95 °F
Dew Point 75 °F
Humidity 69%
Rainfall 0.00 in
Snow Depth Not available.
UV 7 out of 12
Pollen 7.70 out of 12
Air Quality Not available.
Flu Activity Not available.
METAR KL38 301915Z AUTO 09004KT 10SM SCT035 SCT045 SCT055 31/23 A2985 RMK AO2 T03080227

More Conditions Fewer Conditions

10-Day Weather Forecast

Almanac

Astronomy

Sep. 30, 2014 Rise Set
Actual Time 6:56 AM CDT 6:50 PM CDT
Civil Twilight 6:33 AM CDT 7:14 PM CDT
Nautical Twilight 6:05 AM CDT 7:42 PM CDT
Astronomical Twilight 5:37 AM CDT 8:10 PM CDT
Moon 12:46 PM CDT 11:40 PM CDT
Length of Visible Light 12h 41m
Length of Day
11h 53m
Tomorrow will be 1m 47s shorter.
Waxing Crescent, 39% of the Moon is Illuminated
Today
Waxing Crescent
Oct 1
First Quarter
Oct 8
Full
Oct 15
Last Quarter
Oct 23
New

Today's Extremes

State Highs State Lows

Community

WunderPhotos

Upload Photos

1,757,731 photos uploaded!

Nearby

Snow Depth

Station Depth Elevation
No new snow has been reported.

Earthquake Activity

City Distance Mag. Time & Date
No recent earthquake activity has been reported nearby.
Minimum magnitude displayed is 2.5.

Coastal Water Temperatures

Place Temperature
No Stations Reporting

Nearby Weather Stations